Sage Lab — WDH3681 — position and weather

sailwx.info

Track history (hours):
 
Tides and Currents Weather Stations Pressure Air Temp Water Temp Dewpoint Dewpoint Depression Visibility Wind Speed Wind Dir Waves Ship Positions

Sage Lab

Owner: Laborde Marine Management, Morgan City, LA. More information available from US FCC via Universal Licensing System and Coast Guard Vessel Documentation Center.

Last reported at 2017-Nov-17 01:12 UTC. Time now 2017-Nov-25 11:50 UTC.
Position N 29°44' W 091°34'.
Warning: this ship's position is 8 days out of date.

Length 46 m; draft 11.5 m.

Type: Other ship. MMSI: 366951840.

Date/timePositionNaut miles runAvg speedWind from/ knotsBaromVisibWave heightAir tempDewpointWater temp
2017-Nov-17 01:12N 29°44' W 091°34'18 9.3
2017-Nov-16 23:13N 29°51' W 091°53'2 9.6
2017-Nov-16 23:00N 29°51' W 091°56'510.0
2017-Nov-16 22:30N 29°49' W 092°01'611.0
2017-Nov-16 22:00N 29°47' W 092°07'3 6.3
2017-Nov-16 21:30N 29°47' W 092°11'0 0.0
2017-Nov-16 21:00N 29°47' W 092°11'0 0.0
2017-Nov-16 20:30N 29°47' W 092°11'0 0.0
2017-Nov-16 20:00N 29°47' W 092°11'0 0.0
2017-Nov-16 19:30N 29°47' W 092°11'0 0.0
2017-Nov-16 19:00N 29°47' W 092°11'0 0.0
2017-Nov-16 18:30N 29°47' W 092°11'1 1.3
2017-Nov-16 18:00N 29°47' W 092°10'2 3.4
2017-Nov-16 17:30N 29°48' W 092°09'0 0.0
2017-Nov-16 17:00N 29°48' W 092°09'0 0.0
2017-Nov-16 16:30N 29°48' W 092°09'0 0.0
2017-Nov-16 16:00N 29°48' W 092°09'0 0.0
2017-Nov-16 15:30N 29°48' W 092°09'0 0.0
2017-Nov-16 15:00N 29°48' W 092°09'1 2.6
2017-Nov-16 14:30N 29°47' W 092°10'1 1.8
2017-Nov-16 14:00N 29°47' W 092°11'0 0.0
2017-Nov-16 13:30N 29°47' W 092°11'2 4.3
2017-Nov-16 13:00N 29°48' W 092°09'0 0.0
2017-Nov-16 12:30N 29°48' W 092°09'0 0.0
2017-Nov-16 12:00N 29°48' W 092°09'0 0.0
2017-Nov-16 11:30N 29°48' W 092°09'0 0.0
2017-Nov-16 11:00N 29°48' W 092°09'0 0.0
2017-Nov-16 10:30N 29°48' W 092°09'0 0.1
2017-Nov-16 10:00N 29°47' W 092°09'0 0.0
2017-Nov-16 09:30N 29°47' W 092°09'0 0.0
2017-Nov-16 09:00N 29°47' W 092°09'0 0.0
2017-Nov-16 08:30N 29°47' W 092°09'0 0.0
2017-Nov-16 08:00N 29°47' W 092°09'0 0.0
2017-Nov-16 07:30N 29°47' W 092°09'0 0.0
2017-Nov-16 07:00N 29°47' W 092°09'0 1.0
2017-Nov-16 06:30N 29°47' W 092°09'5 9.8
2017-Nov-16 06:01N 29°45' W 092°13'612.4
2017-Nov-16 05:30N 29°39' W 092°16'1 2.8
2017-Nov-16 05:00N 29°37' W 092°16'  
2017-Nov-10 09:34N 29°34' W 092°18'111.3
2017-Nov-10 09:30N 29°35' W 092°18'611.2
2017-Nov-10 09:00N 29°40' W 092°15'611.7
2017-Nov-10 08:30N 29°45' W 092°13'4 8.0
2017-Nov-10 08:00N 29°47' W 092°09'0 0.5
2017-Nov-10 07:30N 29°48' W 092°09'0 0.1
2017-Nov-10 07:00N 29°48' W 092°09'0 0.0
2017-Nov-10 06:30N 29°48' W 092°09'0 0.0
2017-Nov-10 06:00N 29°48' W 092°09'0 0.0
2017-Nov-10 05:30N 29°48' W 092°09'0 0.0
2017-Nov-10 05:00N 29°48' W 092°09'0 0.0
2017-Nov-10 04:30N 29°48' W 092°09'0 0.0
2017-Nov-10 04:00N 29°48' W 092°09'0 0.0
2017-Nov-10 03:30N 29°48' W 092°09'0 0.0
2017-Nov-10 03:00N 29°48' W 092°09'0 0.0
2017-Nov-10 02:30N 29°48' W 092°09'0 0.0
2017-Nov-10 02:00N 29°48' W 092°09'0 0.0
2017-Nov-10 01:30N 29°48' W 092°09'0 0.0
2017-Nov-10 01:00N 29°48' W 092°09'0 0.0
2017-Nov-10 00:30N 29°48' W 092°09'0 0.0
2017-Nov-10 00:00N 29°48' W 092°09'0 0.0
2017-Nov-09 23:30N 29°48' W 092°09'0 0.0
2017-Nov-09 23:00N 29°48' W 092°09'0 0.2
2017-Nov-09 22:30N 29°47' W 092°09'0 0.0
2017-Nov-09 22:00N 29°47' W 092°09'0 0.0
2017-Nov-09 21:30N 29°47' W 092°09'0 0.0
2017-Nov-09 21:00N 29°47' W 092°09'0 0.0
2017-Nov-09 20:30N 29°47' W 092°09'0 0.0
2017-Nov-09 20:00N 29°47' W 092°09'0 0.1
2017-Nov-09 19:30N 29°47' W 092°09'0 0.0
2017-Nov-09 19:00N 29°47' W 092°09'0 0.0
2017-Nov-09 18:30N 29°47' W 092°09'0 0.0
2017-Nov-09 18:00N 29°47' W 092°09'0 0.0
2017-Nov-09 17:30N 29°47' W 092°09'0 0.0
2017-Nov-09 17:00N 29°47' W 092°09'0 0.0
2017-Nov-09 16:30N 29°47' W 092°09'0 0.0
2017-Nov-09 16:00N 29°47' W 092°09'0 0.0
2017-Nov-09 15:30N 29°47' W 092°09'0 0.0
2017-Nov-09 15:00N 29°47' W 092°09'0 0.0
2017-Nov-09 14:30N 29°47' W 092°09'0 0.0
2017-Nov-09 14:00N 29°47' W 092°09'0 0.0
2017-Nov-09 13:30N 29°47' W 092°09'0 0.0
2017-Nov-09 13:00N 29°47' W 092°09'0 0.0
2017-Nov-09 12:30N 29°47' W 092°09'0 0.0
2017-Nov-09 12:00N 29°47' W 092°09'0 0.0
2017-Nov-09 11:30N 29°47' W 092°09'0 0.0
2017-Nov-09 11:00N 29°47' W 092°09'0 0.0
2017-Nov-09 10:30N 29°47' W 092°09'0 0.0
2017-Nov-09 10:00N 29°47' W 092°09'0 0.0
2017-Nov-09 09:30N 29°47' W 092°09'0 0.0
2017-Nov-09 09:00N 29°47' W 092°09'0 0.0
2017-Nov-09 08:30N 29°47' W 092°09'0 0.0
2017-Nov-09 08:00N 29°47' W 092°09'0 0.0
2017-Nov-09 07:30N 29°47' W 092°09'0 0.0
2017-Nov-09 07:00N 29°47' W 092°09'0 0.0
2017-Nov-09 06:30N 29°47' W 092°09'0 0.0
2017-Nov-09 06:00N 29°47' W 092°09'0 0.0
2017-Nov-09 05:30N 29°47' W 092°09'0 0.0
2017-Nov-09 05:00N 29°47' W 092°09'0 0.0
2017-Nov-09 04:30N 29°47' W 092°09'0 0.0
2017-Nov-09 04:00N 29°47' W 092°09'0 0.2
2017-Nov-09 03:30N 29°47' W 092°09'0 0.1
2017-Nov-09 03:00N 29°47' W 092°09'0 0.0
2017-Nov-09 02:30N 29°47' W 092°09'0 0.0
2017-Nov-09 02:00N 29°47' W 092°09'0 0.0
2017-Nov-09 01:30N 29°47' W 092°09'0 0.0
2017-Nov-09 01:00N 29°47' W 092°09'0 0.0
2017-Nov-09 00:30N 29°47' W 092°09'0 0.0
2017-Nov-09 00:00N 29°47' W 092°09'0 0.0
2017-Nov-08 23:30N 29°47' W 092°09'0 0.0
2017-Nov-08 23:00N 29°47' W 092°09'0 0.0
2017-Nov-08 22:30N 29°47' W 092°09'0 0.0
2017-Nov-08 22:00N 29°47' W 092°09'0 0.0
2017-Nov-08 21:30N 29°47' W 092°09'0 0.0
2017-Nov-08 21:00N 29°47' W 092°09'0 0.0
2017-Nov-08 20:30N 29°47' W 092°09'0 0.0
2017-Nov-08 20:00N 29°47' W 092°09'0 0.0
2017-Nov-08 19:30N 29°47' W 092°09'0 0.0
2017-Nov-08 19:00N 29°47' W 092°09'0 0.0
2017-Nov-08 18:30N 29°47' W 092°09'0 0.0
2017-Nov-08 18:00N 29°47' W 092°09'0 0.0
2017-Nov-08 17:30N 29°47' W 092°09'0 0.0
2017-Nov-08 17:00N 29°47' W 092°09'0 0.0
2017-Nov-08 16:30N 29°47' W 092°09'0 0.0
2017-Nov-08 16:00N 29°47' W 092°09'0 0.0
2017-Nov-08 15:30N 29°47' W 092°09'0 0.0
2017-Nov-08 15:00N 29°47' W 092°09'1 1.8
2017-Nov-08 14:30N 29°47' W 092°09'1 2.6
2017-Nov-08 14:00N 29°47' W 092°11'0 0.0
2017-Nov-08 13:30N 29°47' W 092°11'1 1.3
2017-Nov-08 13:00N 29°47' W 092°10'2 3.2
2017-Nov-08 12:30N 29°48' W 092°09'0 0.0
2017-Nov-08 12:00N 29°48' W 092°09'2 4.7
2017-Nov-08 11:30N 29°46' W 092°11'611.1
2017-Nov-08 11:00N 29°42' W 092°15'611.3
2017-Nov-08 10:28N 29°36' W 092°17'  
Track history (hours):
 
Tides and Currents Weather Stations Pressure Air Temp Water Temp Dewpoint Dewpoint Depression Visibility Wind Speed Wind Dir Waves Ship Positions

Sage Lab

Owner: Laborde Marine Management, Morgan City, LA. More information available from US FCC via Universal Licensing System and Coast Guard Vessel Documentation Center.

Last reported at 2017-Nov-17 01:12 UTC. Time now 2017-Nov-25 11:50 UTC.
Position N 29°44' W 091°34'.
Warning: this ship's position is 8 days out of date.

Length 46 m; draft 11.5 m.

Type: Other ship. MMSI: 366951840.

Date/timePositionNaut miles runAvg speedWind from/ knotsBaromVisibWave heightAir tempDewpointWater temp
2017-Nov-17 01:12N 29°44' W 091°34'18 9.3
2017-Nov-16 23:13N 29°51' W 091°53'2 9.6
2017-Nov-16 23:00N 29°51' W 091°56'510.0
2017-Nov-16 22:30N 29°49' W 092°01'611.0
2017-Nov-16 22:00N 29°47' W 092°07'3 6.3
2017-Nov-16 21:30N 29°47' W 092°11'0 0.0
2017-Nov-16 21:00N 29°47' W 092°11'0 0.0
2017-Nov-16 20:30N 29°47' W 092°11'0 0.0
2017-Nov-16 20:00N 29°47' W 092°11'0 0.0
2017-Nov-16 19:30N 29°47' W 092°11'0 0.0
2017-Nov-16 19:00N 29°47' W 092°11'0 0.0
2017-Nov-16 18:30N 29°47' W 092°11'1 1.3
2017-Nov-16 18:00N 29°47' W 092°10'2 3.4
2017-Nov-16 17:30N 29°48' W 092°09'0 0.0
2017-Nov-16 17:00N 29°48' W 092°09'0 0.0
2017-Nov-16 16:30N 29°48' W 092°09'0 0.0
2017-Nov-16 16:00N 29°48' W 092°09'0 0.0
2017-Nov-16 15:30N 29°48' W 092°09'0 0.0
2017-Nov-16 15:00N 29°48' W 092°09'1 2.6
2017-Nov-16 14:30N 29°47' W 092°10'1 1.8
2017-Nov-16 14:00N 29°47' W 092°11'0 0.0
2017-Nov-16 13:30N 29°47' W 092°11'2 4.3
2017-Nov-16 13:00N 29°48' W 092°09'0 0.0
2017-Nov-16 12:30N 29°48' W 092°09'0 0.0
2017-Nov-16 12:00N 29°48' W 092°09'0 0.0
2017-Nov-16 11:30N 29°48' W 092°09'0 0.0
2017-Nov-16 11:00N 29°48' W 092°09'0 0.0
2017-Nov-16 10:30N 29°48' W 092°09'0 0.1
2017-Nov-16 10:00N 29°47' W 092°09'0 0.0
2017-Nov-16 09:30N 29°47' W 092°09'0 0.0
2017-Nov-16 09:00N 29°47' W 092°09'0 0.0
2017-Nov-16 08:30N 29°47' W 092°09'0 0.0
2017-Nov-16 08:00N 29°47' W 092°09'0 0.0
2017-Nov-16 07:30N 29°47' W 092°09'0 0.0
2017-Nov-16 07:00N 29°47' W 092°09'0 1.0
2017-Nov-16 06:30N 29°47' W 092°09'5 9.8
2017-Nov-16 06:01N 29°45' W 092°13'612.4
2017-Nov-16 05:30N 29°39' W 092°16'1 2.8
2017-Nov-16 05:00N 29°37' W 092°16'  
2017-Nov-10 09:34N 29°34' W 092°18'111.3
2017-Nov-10 09:30N 29°35' W 092°18'611.2
2017-Nov-10 09:00N 29°40' W 092°15'611.7
2017-Nov-10 08:30N 29°45' W 092°13'4 8.0
2017-Nov-10 08:00N 29°47' W 092°09'0 0.5
2017-Nov-10 07:30N 29°48' W 092°09'0 0.1
2017-Nov-10 07:00N 29°48' W 092°09'0 0.0
2017-Nov-10 06:30N 29°48' W 092°09'0 0.0
2017-Nov-10 06:00N 29°48' W 092°09'0 0.0
2017-Nov-10 05:30N 29°48' W 092°09'0 0.0
2017-Nov-10 05:00N 29°48' W 092°09'0 0.0
2017-Nov-10 04:30N 29°48' W 092°09'0 0.0
2017-Nov-10 04:00N 29°48' W 092°09'0 0.0
2017-Nov-10 03:30N 29°48' W 092°09'0 0.0
2017-Nov-10 03:00N 29°48' W 092°09'0 0.0
2017-Nov-10 02:30N 29°48' W 092°09'0 0.0
2017-Nov-10 02:00N 29°48' W 092°09'0 0.0
2017-Nov-10 01:30N 29°48' W 092°09'0 0.0
2017-Nov-10 01:00N 29°48' W 092°09'0 0.0
2017-Nov-10 00:30N 29°48' W 092°09'0 0.0
2017-Nov-10 00:00N 29°48' W 092°09'0 0.0
2017-Nov-09 23:30N 29°48' W 092°09'0 0.0
2017-Nov-09 23:00N 29°48' W 092°09'0 0.2
2017-Nov-09 22:30N 29°47' W 092°09'0 0.0
2017-Nov-09 22:00N 29°47' W 092°09'0 0.0
2017-Nov-09 21:30N 29°47' W 092°09'0 0.0
2017-Nov-09 21:00N 29°47' W 092°09'0 0.0
2017-Nov-09 20:30N 29°47' W 092°09'0 0.0
2017-Nov-09 20:00N 29°47' W 092°09'0 0.1
2017-Nov-09 19:30N 29°47' W 092°09'0 0.0
2017-Nov-09 19:00N 29°47' W 092°09'0 0.0
2017-Nov-09 18:30N 29°47' W 092°09'0 0.0
2017-Nov-09 18:00N 29°47' W 092°09'0 0.0
2017-Nov-09 17:30N 29°47' W 092°09'0 0.0
2017-Nov-09 17:00N 29°47' W 092°09'0 0.0
2017-Nov-09 16:30N 29°47' W 092°09'0 0.0
2017-Nov-09 16:00N 29°47' W 092°09'0 0.0
2017-Nov-09 15:30N 29°47' W 092°09'0 0.0
2017-Nov-09 15:00N 29°47' W 092°09'0 0.0
2017-Nov-09 14:30N 29°47' W 092°09'0 0.0
2017-Nov-09 14:00N 29°47' W 092°09'0 0.0
2017-Nov-09 13:30N 29°47' W 092°09'0 0.0
2017-Nov-09 13:00N 29°47' W 092°09'0 0.0
2017-Nov-09 12:30N 29°47' W 092°09'0 0.0
2017-Nov-09 12:00N 29°47' W 092°09'0 0.0
2017-Nov-09 11:30N 29°47' W 092°09'0 0.0
2017-Nov-09 11:00N 29°47' W 092°09'0 0.0
2017-Nov-09 10:30N 29°47' W 092°09'0 0.0
2017-Nov-09 10:00N 29°47' W 092°09'0 0.0
2017-Nov-09 09:30N 29°47' W 092°09'0 0.0
2017-Nov-09 09:00N 29°47' W 092°09'0 0.0
2017-Nov-09 08:30N 29°47' W 092°09'0 0.0
2017-Nov-09 08:00N 29°47' W 092°09'0 0.0
2017-Nov-09 07:30N 29°47' W 092°09'0 0.0
2017-Nov-09 07:00N 29°47' W 092°09'0 0.0
2017-Nov-09 06:30N 29°47' W 092°09'0 0.0
2017-Nov-09 06:00N 29°47' W 092°09'0 0.0
2017-Nov-09 05:30N 29°47' W 092°09'0 0.0
2017-Nov-09 05:00N 29°47' W 092°09'0 0.0
2017-Nov-09 04:30N 29°47' W 092°09'0 0.0
2017-Nov-09 04:00N 29°47' W 092°09'0 0.2
2017-Nov-09 03:30N 29°47' W 092°09'0 0.1
2017-Nov-09 03:00N 29°47' W 092°09'0 0.0
2017-Nov-09 02:30N 29°47' W 092°09'0 0.0
2017-Nov-09 02:00N 29°47' W 092°09'0 0.0
2017-Nov-09 01:30N 29°47' W 092°09'0 0.0
2017-Nov-09 01:00N 29°47' W 092°09'0 0.0
2017-Nov-09 00:30N 29°47' W 092°09'0 0.0
2017-Nov-09 00:00N 29°47' W 092°09'0 0.0
2017-Nov-08 23:30N 29°47' W 092°09'0 0.0
2017-Nov-08 23:00N 29°47' W 092°09'0 0.0
2017-Nov-08 22:30N 29°47' W 092°09'0 0.0
2017-Nov-08 22:00N 29°47' W 092°09'0 0.0
2017-Nov-08 21:30N 29°47' W 092°09'0 0.0
2017-Nov-08 21:00N 29°47' W 092°09'0 0.0
2017-Nov-08 20:30N 29°47' W 092°09'0 0.0
2017-Nov-08 20:00N 29°47' W 092°09'0 0.0
2017-Nov-08 19:30N 29°47' W 092°09'0 0.0
2017-Nov-08 19:00N 29°47' W 092°09'0 0.0
2017-Nov-08 18:30N 29°47' W 092°09'0 0.0
2017-Nov-08 18:00N 29°47' W 092°09'0 0.0
2017-Nov-08 17:30N 29°47' W 092°09'0 0.0
2017-Nov-08 17:00N 29°47' W 092°09'0 0.0
2017-Nov-08 16:30N 29°47' W 092°09'0 0.0
2017-Nov-08 16:00N 29°47' W 092°09'0 0.0
2017-Nov-08 15:30N 29°47' W 092°09'0 0.0
2017-Nov-08 15:00N 29°47' W 092°09'1 1.8
2017-Nov-08 14:30N 29°47' W 092°09'1 2.6
2017-Nov-08 14:00N 29°47' W 092°11'0 0.0
2017-Nov-08 13:30N 29°47' W 092°11'1 1.3
2017-Nov-08 13:00N 29°47' W 092°10'2 3.2
2017-Nov-08 12:30N 29°48' W 092°09'0 0.0
2017-Nov-08 12:00N 29°48' W 092°09'2 4.7
2017-Nov-08 11:30N 29°46' W 092°11'611.1
2017-Nov-08 11:00N 29°42' W 092°15'611.3
2017-Nov-08 10:28N 29°36' W 092°17'  

Dump ship's entire track history